Time;durP1;ratioP1;P1;durP2;ratioP2;P2;SDS_P1;SDS_P2;PMS_P1;PMS_P2;Temp;Humidity;BMP_temperature;BMP_pressure;BME280_temperature;BME280_humidity;BME280_pressure;Samples;Min_cycle;Max_cycle;Signal;HPM_P1;HPM_P2
2020/12/04 00:01:32;;;;;;;34.28;17.35;;;0.90;99.90;;;;;;5037950;28;20021;-52
2020/12/04 00:03:57;;;;;;;31.65;16.42;;;0.90;99.90;;;;;;5042043;28;20595;-53
2020/12/04 00:06:23;;;;;;;31.95;16.98;;;0.90;99.90;;;;;;5033867;28;20616;-51
2020/12/04 00:08:48;;;;;;;37.03;17.65;;;0.90;99.90;;;;;;5026608;28;20033;-53
2020/12/04 00:11:14;;;;;;;35.35;16.42;;;0.90;99.90;;;;;;5026213;28;20124;-53
2020/12/04 00:13:39;;;;;;;38.58;18.40;;;0.90;99.90;;;;;;5028373;28;20398;-53
2020/12/04 00:16:05;;;;;;;38.28;18.33;;;0.90;99.90;;;;;;5035070;28;20029;-52
2020/12/04 00:18:30;;;;;;;42.65;18.33;;;0.90;99.90;;;;;;5030959;28;20389;-52
2020/12/04 00:20:56;;;;;;;37.05;17.67;;;0.90;99.90;;;;;;5026437;28;20022;-53
2020/12/04 00:23:21;;;;;;;31.45;17.83;;;0.90;99.90;;;;;;5036265;28;20022;-53
2020/12/04 00:25:47;;;;;;;35.55;16.92;;;0.90;99.90;;;;;;5039394;28;20021;-52
2020/12/04 00:28:12;;;;;;;40.42;18.63;;;0.90;99.90;;;;;;5042506;28;20017;-49
2020/12/04 00:30:38;;;;;;;33.95;17.52;;;0.90;99.90;;;;;;5034522;28;20410;-50
2020/12/04 00:33:03;;;;;;;38.92;18.77;;;0.90;99.90;;;;;;5027876;28;20506;-51
2020/12/04 00:35:29;;;;;;;36.72;16.98;;;0.90;99.90;;;;;;5027031;28;20029;-49
2020/12/04 00:37:54;;;;;;;34.90;16.75;;;0.90;99.90;;;;;;5035211;28;20041;-50
2020/12/04 00:40:20;;;;;;;31.58;16.85;;;0.90;99.90;;;;;;5027140;28;20531;-52
2020/12/04 00:42:47;;;;;;;36.55;18.33;;;0.90;99.90;;;;;;5043962;28;20279;-52
2020/12/04 00:45:14;;;;;;;38.78;18.60;;;0.90;99.90;;;;;;5046888;28;20025;-52
2020/12/04 00:47:40;;;;;;;37.30;18.70;;;0.90;99.90;;;;;;5037531;28;20307;-52
2020/12/04 00:50:05;;;;;;;39.17;18.95;;;0.90;99.90;;;;;;5025572;28;20125;-50
2020/12/04 00:52:31;;;;;;;38.17;19.15;;;0.90;99.90;;;;;;5030641;28;20029;-50
2020/12/04 00:54:57;;;;;;;38.08;19.08;;;0.80;99.90;;;;;;5031393;28;20482;-50
2020/12/04 00:57:23;;;;;;;36.47;18.50;;;0.80;99.90;;;;;;5046940;28;20486;-52
2020/12/04 00:59:48;;;;;;;47.20;20.92;;;0.80;99.90;;;;;;5047361;28;20188;-49
2020/12/04 01:02:14;;;;;;;43.85;20.33;;;0.80;99.90;;;;;;5046012;28;20283;-51
2020/12/04 01:04:39;;;;;;;42.78;20.80;;;0.80;99.90;;;;;;5049447;28;20073;-50
2020/12/04 01:07:05;;;;;;;43.92;21.52;;;0.80;99.90;;;;;;5038633;28;20029;-51
2020/12/04 01:09:34;;;;;;;44.50;21.25;;;0.90;99.90;;;;;;5048686;28;20090;-48
2020/12/04 01:11:59;;;;;;;42.72;20.92;;;0.90;99.90;;;;;;5049522;28;20036;-51
2020/12/04 01:14:26;;;;;;;40.65;21.83;;;0.90;99.90;;;;;;5049328;28;20028;-51
2020/12/04 01:16:52;;;;;;;47.67;21.33;;;0.90;99.90;;;;;;5046894;28;20311;-49
2020/12/04 01:19:17;;;;;;;45.55;22.63;;;0.90;99.90;;;;;;5044195;28;20032;-49
2020/12/04 01:21:45;;;;;;;46.05;21.95;;;0.90;99.90;;;;;;5049361;28;20532;-49
2020/12/04 01:24:11;;;;;;;48.45;22.25;;;0.90;99.90;;;;;;5050203;28;20040;-50
2020/12/04 01:26:39;;;;;;;45.80;21.63;;;0.90;99.90;;;;;;5043979;28;20025;-52
2020/12/04 01:29:06;;;;;;;43.97;21.65;;;0.90;99.90;;;;;;5045064;28;20498;-51
2020/12/04 01:31:31;;;;;;;44.28;20.85;;;1.00;99.90;;;;;;5045650;28;20025;-52
2020/12/04 01:34:00;;;;;;;47.85;23.00;;;1.00;99.90;;;;;;5050182;28;20040;-52
2020/12/04 01:36:26;;;;;;;46.58;21.98;;;1.00;99.90;;;;;;5050310;28;20028;-51
2020/12/04 01:38:51;;;;;;;47.40;22.20;;;1.10;99.90;;;;;;5050010;28;20390;-48
2020/12/04 01:41:17;;;;;;;46.88;21.27;;;1.10;99.90;;;;;;5048093;28;20024;-47
2020/12/04 01:43:42;;;;;;;43.55;21.50;;;1.10;99.90;;;;;;5039275;28;20395;-45
2020/12/04 01:46:08;;;;;;;51.72;22.00;;;1.20;99.90;;;;;;5047696;28;20029;-46
2020/12/04 01:48:34;;;;;;;42.40;20.23;;;1.20;99.90;;;;;;5033380;28;20037;-47
2020/12/04 01:51:00;;;;;;;50.03;21.20;;;1.20;99.90;;;;;;5032406;28;20025;-46
2020/12/04 01:53:27;;;;;;;42.35;21.13;;;1.20;99.90;;;;;;5048393;28;20041;-46
2020/12/04 01:55:53;;;;;;;44.53;21.70;;;1.30;99.90;;;;;;5043403;28;20111;-46
2020/12/04 01:58:18;;;;;;;43.80;21.42;;;1.20;99.90;;;;;;5050439;28;20547;-45
2020/12/04 02:00:45;;;;;;;49.75;23.05;;;1.30;99.90;;;;;;5048362;28;20163;-45
2020/12/04 02:03:12;;;;;;;45.15;21.67;;;1.30;99.90;;;;;;5047739;28;20017;-47
2020/12/04 02:05:51;;;;;;;45.35;21.75;;;1.30;99.90;;;;;;5049508;28;20047;-46
2020/12/04 02:08:50;;;;;;;44.13;20.10;;;1.30;99.90;;;;;;5048526;28;20025;-46
2020/12/04 02:11:18;;;;;;;45.90;23.05;;;1.30;99.90;;;;;;5048627;28;20093;-46
2020/12/04 02:13:45;;;;;;;44.78;20.65;;;1.30;99.90;;;;;;5048324;28;20032;-47
2020/12/04 02:16:22;;;;;;;47.38;23.10;;;1.30;99.90;;;;;;5045724;28;20386;-48
2020/12/04 02:18:49;;;;;;;43.90;22.25;;;1.30;99.90;;;;;;5045961;28;20257;-47
2020/12/04 02:21:15;;;;;;;46.63;22.67;;;1.30;99.90;;;;;;5044197;28;20441;-48
2020/12/04 02:23:48;;;;;;;43.80;20.83;;;1.40;99.90;;;;;;5035717;28;20036;-47
2020/12/04 02:26:20;;;;;;;47.75;21.05;;;1.40;99.90;;;;;;5049985;28;20420;-47
2020/12/04 02:28:46;;;;;;;41.35;20.45;;;1.40;99.90;;;;;;5041578;28;20039;-47
2020/12/04 02:31:12;;;;;;;41.45;20.35;;;1.30;99.90;;;;;;5041702;28;20090;-46
2020/12/04 02:33:38;;;;;;;41.97;21.20;;;1.40;99.90;;;;;;5049482;28;20020;-46
2020/12/04 02:36:04;;;;;;;46.20;20.77;;;1.40;99.90;;;;;;5048553;28;20521;-47
2020/12/04 02:38:30;;;;;;;38.72;21.33;;;1.40;99.90;;;;;;5048835;28;20021;-46
2020/12/04 02:40:56;;;;;;;45.95;22.10;;;1.40;99.90;;;;;;5047790;28;20025;-47
2020/12/04 02:43:22;;;;;;;42.50;21.20;;;1.40;99.90;;;;;;5029623;28;20025;-46
2020/12/04 02:45:48;;;;;;;48.80;22.45;;;1.40;99.90;;;;;;5029539;28;20107;-47
2020/12/04 02:48:14;;;;;;;43.35;20.55;;;1.40;99.90;;;;;;5029611;28;20076;-47
2020/12/04 02:50:39;;;;;;;42.65;20.45;;;1.40;99.90;;;;;;5042475;28;20044;-49
2020/12/04 02:53:05;;;;;;;43.47;20.92;;;1.40;99.90;;;;;;5041857;28;20497;-47
2020/12/04 02:55:32;;;;;;;42.40;20.63;;;1.40;99.90;;;;;;5048397;28;20116;-52
2020/12/04 02:57:57;;;;;;;44.63;19.98;;;1.40;99.90;;;;;;5048107;28;20048;-49
2020/12/04 03:00:23;;;;;;;39.78;20.63;;;1.40;99.90;;;;;;5048567;28;20025;-48
2020/12/04 03:02:49;;;;;;;42.78;21.35;;;1.40;99.90;;;;;;5047197;28;20490;-49
2020/12/04 03:05:14;;;;;;;45.10;21.02;;;1.40;99.90;;;;;;5048598;28;20122;-52
2020/12/04 03:07:40;;;;;;;36.28;19.92;;;1.40;99.90;;;;;;5048746;28;20087;-48
2020/12/04 03:10:06;;;;;;;39.33;19.45;;;1.40;99.90;;;;;;5049340;28;20079;-49
2020/12/04 03:12:33;;;;;;;40.67;19.95;;;1.40;99.90;;;;;;5046535;28;20191;-49
2020/12/04 03:15:02;;;;;;;38.63;20.35;;;1.40;99.90;;;;;;5048598;28;20250;-50
2020/12/04 03:17:28;;;;;;;45.83;19.90;;;1.40;99.90;;;;;;5039574;28;20482;-48
2020/12/04 03:19:54;;;;;;;43.33;20.85;;;1.40;99.90;;;;;;5031819;28;20033;-48
2020/12/04 03:22:20;;;;;;;38.72;18.98;;;1.40;99.90;;;;;;5040050;28;20021;-47
2020/12/04 03:24:46;;;;;;;42.70;19.77;;;1.40;99.90;;;;;;5047955;28;20017;-46
2020/12/04 03:27:12;;;;;;;40.10;20.73;;;1.50;99.90;;;;;;5047933;28;20074;-49
2020/12/04 03:29:38;;;;;;;44.92;20.65;;;1.50;99.90;;;;;;5047100;28;20024;-48
2020/12/04 03:32:03;;;;;;;43.38;20.98;;;1.50;99.90;;;;;;5040019;28;20078;-48
2020/12/04 03:34:29;;;;;;;39.90;19.42;;;1.50;99.90;;;;;;5045567;28;20478;-47
2020/12/04 03:36:54;;;;;;;38.20;18.90;;;1.50;99.90;;;;;;5047171;28;20114;-50
2020/12/04 03:39:20;;;;;;;38.13;18.38;;;1.50;99.90;;;;;;5048338;28;20025;-49
2020/12/04 03:41:46;;;;;;;39.78;19.42;;;1.50;99.90;;;;;;5040609;28;20029;-48
2020/12/04 03:44:11;;;;;;;38.03;20.45;;;1.50;99.90;;;;;;5039418;28;20028;-50
2020/12/04 03:46:37;;;;;;;41.65;20.02;;;1.50;99.90;;;;;;5047168;28;20116;-50
2020/12/04 03:49:02;;;;;;;35.08;18.77;;;1.60;99.90;;;;;;5042484;28;20029;-52
2020/12/04 03:51:28;;;;;;;38.97;20.00;;;1.60;99.90;;;;;;5036044;28;20021;-49
2020/12/04 03:53:53;;;;;;;36.55;18.85;;;1.60;99.90;;;;;;5037271;28;20043;-49
2020/12/04 03:56:19;;;;;;;36.05;17.90;;;1.70;99.90;;;;;;5026081;28;20506;-50
2020/12/04 03:58:44;;;;;;;41.13;22.10;;;1.70;99.90;;;;;;5027782;28;20029;-49
2020/12/04 04:01:11;;;;;;;39.38;19.92;;;1.70;99.90;;;;;;5030820;28;20021;-53
2020/12/04 04:03:37;;;;;;;37.53;19.20;;;1.70;99.90;;;;;;5037032;28;20028;-49
2020/12/04 04:06:03;;;;;;;41.70;19.98;;;1.70;99.90;;;;;;5031339;28;20021;-50
2020/12/04 04:08:29;;;;;;;41.55;21.25;;;1.70;99.90;;;;;;5027707;28;20018;-53
2020/12/04 04:10:54;;;;;;;40.67;20.92;;;1.70;99.90;;;;;;5027081;28;20052;-51
2020/12/04 04:13:19;;;;;;;38.15;19.90;;;1.80;99.90;;;;;;5027361;28;20100;-54
2020/12/04 04:15:45;;;;;;;35.78;20.40;;;1.80;99.90;;;;;;5025653;28;20025;-55
2020/12/04 04:18:10;;;;;;;40.92;21.08;;;1.80;99.90;;;;;;5035438;28;20394;-54
2020/12/04 04:20:36;;;;;;;40.40;19.95;;;1.80;99.90;;;;;;5026552;28;20033;-55
2020/12/04 04:23:01;;;;;;;41.75;21.48;;;1.80;99.90;;;;;;5027238;28;20375;-52
2020/12/04 04:25:27;;;;;;;39.15;20.38;;;1.80;99.90;;;;;;5027224;28;20695;-53
2020/12/04 04:27:53;;;;;;;47.15;22.38;;;1.80;99.90;;;;;;5026045;28;20024;-53
2020/12/04 04:30:18;;;;;;;36.03;19.58;;;1.80;99.90;;;;;;5026871;28;20079;-52
2020/12/04 04:32:44;;;;;;;38.88;19.40;;;1.90;99.90;;;;;;5033397;28;20040;-49
2020/12/04 04:35:09;;;;;;;41.63;22.10;;;1.90;99.90;;;;;;5042582;28;20021;-48
2020/12/04 04:37:35;;;;;;;43.22;20.85;;;1.90;99.90;;;;;;5029238;28;20060;-52
2020/12/04 04:40:02;;;;;;;41.83;19.55;;;2.00;99.90;;;;;;5028956;28;20024;-49
2020/12/04 04:42:27;;;;;;;41.70;22.00;;;2.00;99.90;;;;;;5030676;28;20672;-52
2020/12/04 04:44:54;;;;;;;43.58;20.88;;;2.00;99.90;;;;;;5035610;28;20028;-52
2020/12/04 04:47:23;;;;;;;45.78;23.48;;;2.00;99.90;;;;;;5031183;28;20025;-52
2020/12/04 04:49:52;;;;;;;40.28;20.80;;;1.90;99.90;;;;;;5031016;28;20027;-52
2020/12/04 04:52:19;;;;;;;42.80;23.42;;;1.90;99.90;;;;;;5029921;28;20688;-52
2020/12/04 04:54:49;;;;;;;45.88;23.92;;;2.00;99.90;;;;;;5032110;28;20475;-48
2020/12/04 04:57:20;;;;;;;35.33;17.00;;;1.90;99.90;;;;;;5030657;28;20077;-51
2020/12/04 04:59:45;;;;;;;45.95;22.98;;;1.80;99.90;;;;;;5029655;28;20386;-51
2020/12/04 05:02:12;;;;;;;48.17;23.33;;;1.80;99.90;;;;;;5030246;28;20438;-48
2020/12/04 05:04:52;;;;;;;43.05;23.33;;;1.80;99.90;;;;;;5030314;28;20072;-50
2020/12/04 05:07:29;;;;;;;44.00;23.67;;;1.80;99.90;;;;;;5039440;28;20033;-49
2020/12/04 05:10:12;;;;;;;48.35;23.13;;;1.80;99.90;;;;;;5040327;28;20029;-48
2020/12/04 05:12:43;;;;;;;51.92;24.52;;;1.80;99.90;;;;;;5049728;28;20029;-49
2020/12/04 05:15:22;;;;;;;49.42;24.50;;;1.70;99.90;;;;;;5049869;28;20036;-51
2020/12/04 05:18:07;;;;;;;49.47;24.63;;;1.70;99.90;;;;;;5039642;28;20030;-53
2020/12/04 05:20:37;;;;;;;53.15;25.65;;;1.70;99.90;;;;;;5039256;28;20033;-51
2020/12/04 05:23:03;;;;;;;45.50;22.75;;;1.70;99.90;;;;;;5038071;28;20171;-50
2020/12/04 05:25:40;;;;;;;46.70;23.65;;;1.70;99.90;;;;;;5030273;28;20501;-50
2020/12/04 05:28:15;;;;;;;53.00;25.95;;;1.70;99.90;;;;;;5035828;28;20379;-49
2020/12/04 05:30:46;;;;;;;43.65;22.83;;;1.70;99.90;;;;;;5032986;28;20487;-49
2020/12/04 05:33:13;;;;;;;43.53;21.75;;;1.70;99.90;;;;;;5040492;28;20037;-51
2020/12/04 05:35:40;;;;;;;47.65;22.38;;;1.70;99.90;;;;;;5044524;28;20465;-53
2020/12/04 05:38:15;;;;;;;43.90;22.80;;;1.70;99.90;;;;;;5038441;28;20659;-49
2020/12/04 05:40:45;;;;;;;44.10;21.38;;;1.70;99.90;;;;;;5030193;28;20402;-48
2020/12/04 05:43:12;;;;;;;47.53;22.52;;;1.70;99.90;;;;;;5028801;28;20536;-47
2020/12/04 05:45:38;;;;;;;48.50;23.63;;;1.70;99.90;;;;;;5030101;28;20030;-48
2020/12/04 05:48:13;;;;;;;45.78;22.88;;;1.70;99.90;;;;;;5038094;28;20406;-50
2020/12/04 05:50:40;;;;;;;45.72;21.20;;;1.70;99.90;;;;;;5044329;28;20025;-52
2020/12/04 05:53:08;;;;;;;47.42;21.95;;;1.60;99.90;;;;;;5043610;28;20393;-52
2020/12/04 05:55:35;;;;;;;48.95;23.98;;;1.70;99.90;;;;;;5031368;28;20024;-52
2020/12/04 05:58:02;;;;;;;56.05;23.48;;;1.60;99.90;;;;;;5029506;28;20485;-52
2020/12/04 06:00:27;;;;;;;46.67;21.88;;;1.60;99.90;;;;;;5030955;28;20368;-52
2020/12/04 06:03:00;;;;;;;46.05;21.70;;;1.60;99.90;;;;;;5029643;28;20009;-51
2020/12/04 06:05:26;;;;;;;46.85;23.13;;;1.60;99.90;;;;;;5029596;28;20028;-50
2020/12/04 06:08:00;;;;;;;47.45;22.05;;;1.60;99.90;;;;;;5029515;28;20017;-49
2020/12/04 06:10:27;;;;;;;48.65;21.92;;;1.60;99.90;;;;;;5029388;28;20391;-52
2020/12/04 06:12:53;;;;;;;46.42;22.63;;;1.60;99.90;;;;;;5029147;28;20458;-52
2020/12/04 06:15:26;;;;;;;47.78;22.65;;;1.50;99.90;;;;;;5029282;28;20033;-53
2020/12/04 06:18:13;;;;;;;52.13;23.92;;;1.50;99.90;;;;;;5035977;28;20056;-49
2020/12/04 06:20:44;;;;;;;49.97;22.80;;;1.50;99.90;;;;;;5027641;28;20111;-52
2020/12/04 06:23:13;;;;;;;46.88;22.38;;;1.50;99.90;;;;;;5046845;28;20033;-49
2020/12/04 06:25:50;;;;;;;45.60;23.02;;;1.50;99.90;;;;;;5038979;28;20731;-49
2020/12/04 06:28:17;;;;;;;45.67;22.92;;;1.40;99.90;;;;;;5042234;28;20051;-48
2020/12/04 06:31:14;;;;;;;51.03;22.20;;;1.40;99.90;;;;;;5048471;28;20464;-49
2020/12/04 06:33:41;;;;;;;50.30;23.00;;;1.40;99.90;;;;;;5048301;28;20029;-49
2020/12/04 06:36:09;;;;;;;50.92;23.00;;;1.30;99.90;;;;;;5033318;28;20017;-49
2020/12/04 06:38:43;;;;;;;48.45;23.05;;;1.30;99.90;;;;;;5045123;28;20033;-48
2020/12/04 06:41:18;;;;;;;51.33;23.95;;;1.30;99.90;;;;;;5046556;28;20044;-50
2020/12/04 06:43:45;;;;;;;50.95;24.15;;;1.30;99.90;;;;;;5044246;28;20025;-50
2020/12/04 06:46:30;;;;;;;47.45;22.08;;;1.30;99.90;;;;;;5032655;28;20068;-48
2020/12/04 06:49:10;;;;;;;51.92;23.08;;;1.30;99.90;;;;;;5041146;28;20062;-48
2020/12/04 06:51:37;;;;;;;51.60;23.80;;;1.30;99.90;;;;;;5034602;28;20364;-47
2020/12/04 06:54:06;;;;;;;51.38;24.25;;;1.30;99.90;;;;;;5030207;28;20033;-46
2020/12/04 06:56:33;;;;;;;48.55;23.50;;;1.40;99.90;;;;;;5045248;28;20035;-47
2020/12/04 06:58:58;;;;;;;51.85;23.20;;;1.40;99.90;;;;;;5039276;28;20021;-46
2020/12/04 07:01:24;;;;;;;48.13;23.58;;;1.40;99.90;;;;;;5036476;28;20662;-48
2020/12/04 07:03:54;;;;;;;47.47;23.58;;;1.40;99.90;;;;;;5044757;28;20032;-47
2020/12/04 07:06:21;;;;;;;51.08;24.38;;;1.50;99.90;;;;;;5044900;28;20025;-48
2020/12/04 07:09:04;;;;;;;48.30;25.20;;;1.50;99.90;;;;;;5038757;28;20056;-48
2020/12/04 07:11:30;;;;;;;49.42;24.17;;;1.40;99.90;;;;;;5046055;28;20481;-49
2020/12/04 07:13:57;;;;;;;42.78;21.38;;;1.40;99.90;;;;;;5039751;28;20434;-48
2020/12/04 07:16:24;;;;;;;49.95;23.38;;;1.40;99.90;;;;;;5045743;28;20029;-48
2020/12/04 07:18:52;;;;;;;47.25;23.08;;;1.40;99.90;;;;;;5027626;28;20030;-47
2020/12/04 07:21:18;;;;;;;44.25;22.35;;;1.40;99.90;;;;;;5025219;28;20018;-49
2020/12/04 07:23:44;;;;;;;44.88;22.50;;;1.40;99.90;;;;;;5037001;28;20579;-47
2020/12/04 07:26:15;;;;;;;47.72;22.83;;;1.30;99.90;;;;;;5028649;28;20024;-47
2020/12/04 07:28:44;;;;;;;50.08;24.27;;;1.30;99.90;;;;;;5046532;28;20025;-46
2020/12/04 07:31:17;;;;;;;44.70;22.40;;;1.40;99.90;;;;;;5048235;28;20416;-47
2020/12/04 07:33:58;;;;;;;47.50;23.33;;;1.30;99.90;;;;;;5047024;28;20505;-48
2020/12/04 07:36:27;;;;;;;;;;;1.40;99.90;;;;;;5041206;28;20040;-47
2020/12/04 07:38:56;;;;;;;42.25;20.88;;;1.40;99.90;;;;;;5045917;28;20015;-46
2020/12/04 07:41:39;;;;;;;47.38;22.48;;;1.40;99.90;;;;;;5047111;28;20021;-46
2020/12/04 07:44:08;;;;;;;47.00;22.92;;;1.40;99.90;;;;;;5048011;28;20045;-46
2020/12/04 07:46:35;;;;;;;46.45;21.17;;;1.50;99.90;;;;;;5047191;28;20025;-47
2020/12/04 07:49:09;;;;;;;49.38;23.35;;;1.50;99.90;;;;;;5027689;28;20283;-50
2020/12/04 07:51:37;;;;;;;44.08;22.63;;;1.50;99.90;;;;;;5027940;28;20044;-49
2020/12/04 07:54:05;;;;;;;47.85;22.73;;;1.50;99.90;;;;;;5035570;28;20036;-48
2020/12/04 07:56:32;;;;;;;46.10;23.00;;;1.50;99.90;;;;;;5038284;28;20029;-49
2020/12/04 07:59:04;;;;;;;51.05;23.67;;;1.50;99.90;;;;;;5032899;28;20025;-48
2020/12/04 08:01:30;;;;;;;47.95;23.95;;;1.50;99.90;;;;;;5037631;28;20017;-47
2020/12/04 08:03:56;;;;;;;48.40;22.02;;;1.50;99.90;;;;;;5046671;28;20032;-48
2020/12/04 08:06:27;;;;;;;47.25;22.73;;;1.50;99.90;;;;;;5045382;28;20382;-49
2020/12/04 08:09:13;;;;;;;48.90;23.58;;;1.50;99.90;;;;;;5046574;28;20433;-50
2020/12/04 08:11:46;;;;;;;47.35;21.88;;;1.50;99.90;;;;;;5041314;28;20424;-47
2020/12/04 08:14:14;;;;;;;46.00;21.80;;;1.60;99.90;;;;;;5032157;28;20017;-50
2020/12/04 08:16:39;;;;;;;51.08;23.90;;;1.60;99.90;;;;;;5032357;28;20448;-50
2020/12/04 08:19:10;;;;;;;49.17;23.05;;;1.60;99.90;;;;;;5041115;28;20029;-48
2020/12/04 08:21:36;;;;;;;49.53;24.02;;;1.60;99.90;;;;;;5041479;28;20029;-51
2020/12/04 08:24:02;;;;;;;49.05;22.67;;;1.70;99.90;;;;;;5035520;28;20024;-47
2020/12/04 08:26:27;;;;;;;51.03;24.35;;;1.70;99.90;;;;;;5037609;28;20093;-50
2020/12/04 08:28:54;;;;;;;46.50;23.42;;;1.70;99.90;;;;;;5039933;28;20124;-50
2020/12/04 08:31:24;;;;;;;46.70;23.23;;;1.70;99.90;;;;;;5029928;28;20029;-49
2020/12/04 08:33:50;;;;;;;50.07;23.00;;;1.70;99.90;;;;;;5032675;28;20025;-48
2020/12/04 08:36:17;;;;;;;46.95;23.83;;;1.80;99.90;;;;;;5036516;28;20481;-47
2020/12/04 08:38:52;;;;;;;46.25;22.77;;;1.70;99.90;;;;;;5040642;28;20075;-47
2020/12/04 08:41:19;;;;;;;46.40;21.88;;;1.80;99.90;;;;;;5043000;28;20567;-48
2020/12/04 08:43:45;;;;;;;39.75;21.13;;;1.80;99.90;;;;;;5033972;28;20067;-47
2020/12/04 08:46:11;;;;;;;48.95;22.52;;;1.80;99.90;;;;;;5027506;28;20029;-47
2020/12/04 08:48:40;;;;;;;43.90;21.75;;;1.80;99.90;;;;;;5031869;28;20474;-48
2020/12/04 08:51:07;;;;;;;41.65;20.50;;;1.80;99.90;;;;;;5033875;28;20080;-48
2020/12/04 08:53:33;;;;;;;43.25;22.00;;;1.80;99.90;;;;;;5039968;28;20544;-49
2020/12/04 08:56:01;;;;;;;47.55;22.05;;;1.80;99.90;;;;;;5045908;28;20542;-52
2020/12/04 08:58:27;;;;;;;45.00;22.65;;;1.90;99.90;;;;;;5042122;28;20059;-48
2020/12/04 09:00:54;;;;;;;47.80;21.55;;;1.90;99.90;;;;;;5044811;28;20033;-50
2020/12/04 09:03:21;;;;;;;43.70;21.80;;;1.90;99.90;;;;;;5045992;28;20116;-50
2020/12/04 09:05:47;;;;;;;47.65;21.58;;;2.00;99.90;;;;;;5044489;28;20025;-48
2020/12/04 09:08:13;;;;;;;44.30;22.17;;;2.00;99.90;;;;;;5044788;28;20029;-47
2020/12/04 09:10:39;;;;;;;42.30;21.05;;;2.00;99.90;;;;;;5045425;28;20306;-48
2020/12/04 09:13:06;;;;;;;42.10;21.42;;;2.00;99.90;;;;;;5032359;28;20036;-51
2020/12/04 09:15:33;;;;;;;46.40;21.60;;;2.00;99.90;;;;;;5038994;28;20393;-47
2020/12/04 09:17:59;;;;;;;49.58;22.55;;;2.00;99.90;;;;;;5034265;28;20044;-49
2020/12/04 09:20:24;;;;;;;43.53;20.85;;;1.90;99.90;;;;;;5026891;28;20025;-49
2020/12/04 09:22:51;;;;;;;39.55;20.45;;;2.00;99.90;;;;;;5035085;28;20099;-47
2020/12/04 09:25:18;;;;;;;42.47;20.77;;;2.00;99.90;;;;;;5028101;28;20022;-48
2020/12/04 09:27:44;;;;;;;44.42;20.70;;;2.00;99.90;;;;;;5040604;28;20112;-46
2020/12/04 09:30:12;;;;;;;48.72;22.08;;;2.00;99.90;;;;;;5041871;28;20113;-48
2020/12/04 09:32:41;;;;;;;43.08;22.77;;;2.10;99.90;;;;;;5048343;28;20025;-48
2020/12/04 09:35:07;;;;;;;42.83;21.02;;;2.00;99.90;;;;;;5049799;28;20021;-50
2020/12/04 09:37:34;;;;;;;41.13;19.52;;;2.10;99.90;;;;;;5033321;28;20032;-49
2020/12/04 09:40:10;;;;;;;45.72;21.65;;;2.10;99.90;;;;;;5039744;28;20486;-51
2020/12/04 09:42:37;;;;;;;42.85;20.85;;;2.20;99.90;;;;;;5035337;28;20112;-51
2020/12/04 09:45:04;;;;;;;42.47;21.13;;;2.20;99.90;;;;;;5041148;28;20044;-49
2020/12/04 09:47:32;;;;;;;45.10;21.95;;;2.20;99.90;;;;;;5047816;28;20021;-51
2020/12/04 09:49:58;;;;;;;40.17;20.67;;;2.20;99.90;;;;;;5037947;28;20029;-51
2020/12/04 09:52:23;;;;;;;41.03;20.38;;;2.20;99.90;;;;;;5035363;28;20625;-49
2020/12/04 09:54:49;;;;;;;42.50;20.70;;;2.20;99.90;;;;;;5032543;28;20052;-47
2020/12/04 09:57:16;;;;;;;39.13;20.17;;;2.30;99.90;;;;;;5029101;28;20627;-47
2020/12/04 09:59:42;;;;;;;37.42;18.08;;;2.30;99.90;;;;;;5032989;28;20621;-49
2020/12/04 10:02:08;;;;;;;40.92;19.63;;;2.50;99.90;;;;;;5030598;28;20032;-48
2020/12/04 10:04:34;;;;;;;39.95;19.27;;;2.50;99.90;;;;;;5030623;28;20013;-48
2020/12/04 10:07:00;;;;;;;36.55;19.02;;;2.50;99.90;;;;;;5036143;28;20028;-48
2020/12/04 10:09:28;;;;;;;35.05;18.98;;;2.50;99.90;;;;;;5032344;28;20021;-50
2020/12/04 10:11:53;;;;;;;34.55;16.77;;;2.60;99.90;;;;;;5030037;28;20026;-49
2020/12/04 10:14:20;;;;;;;37.95;19.05;;;2.60;99.90;;;;;;5030332;28;20038;-50
2020/12/04 10:16:47;;;;;;;34.58;18.33;;;2.70;99.90;;;;;;5031531;28;20025;-49
2020/12/04 10:19:15;;;;;;;37.25;18.73;;;2.80;99.90;;;;;;5030299;28;20029;-51
2020/12/04 10:21:40;;;;;;;42.03;19.98;;;2.90;99.90;;;;;;5032432;28;20021;-48
2020/12/04 10:24:07;;;;;;;36.28;18.15;;;2.90;99.90;;;;;;5033153;28;20025;-48
2020/12/04 10:26:45;;;;;;;34.13;17.38;;;2.90;99.90;;;;;;5029329;28;20049;-48
2020/12/04 10:29:12;;;;;;;38.10;16.67;;;2.90;99.90;;;;;;5032371;28;20438;-48
2020/12/04 10:31:38;;;;;;;39.53;17.70;;;3.00;99.90;;;;;;5029084;28;20586;-47
2020/12/04 10:34:03;;;;;;;32.65;17.25;;;3.00;99.90;;;;;;5030205;28;20036;-50
2020/12/04 10:36:30;;;;;;;35.25;18.75;;;3.10;99.90;;;;;;5029768;28;20036;-50
2020/12/04 10:38:56;;;;;;;34.95;19.30;;;3.20;99.90;;;;;;5033092;28;20150;-45
2020/12/04 10:41:22;;;;;;;36.17;17.65;;;3.30;99.90;;;;;;5031148;28;20615;-47
2020/12/04 10:43:48;;;;;;;38.92;19.30;;;3.30;99.90;;;;;;5030346;28;20045;-46
2020/12/04 10:46:15;;;;;;;36.47;18.63;;;3.40;99.90;;;;;;5029742;28;20017;-48
2020/12/04 10:48:41;;;;;;;38.33;20.08;;;3.50;99.90;;;;;;5028570;28;20486;-47
2020/12/04 10:51:08;;;;;;;35.05;17.75;;;3.60;99.90;;;;;;5028109;28;20029;-46
2020/12/04 10:53:33;;;;;;;39.55;20.88;;;3.70;99.90;;;;;;5030826;28;20034;-46
2020/12/04 10:55:59;;;;;;;35.80;19.17;;;3.80;99.90;;;;;;5037953;28;20074;-46
2020/12/04 10:58:25;;;;;;;39.55;20.45;;;3.90;99.90;;;;;;5049580;28;20052;-45
2020/12/04 11:00:51;;;;;;;33.60;18.58;;;3.90;99.90;;;;;;5049190;28;20470;-46
2020/12/04 11:03:26;;;;;;;35.13;17.80;;;3.90;99.90;;;;;;5049506;28;20017;-45
2020/12/04 11:05:51;;;;;;;38.90;17.52;;;4.00;99.90;;;;;;5046798;28;20374;-45
2020/12/04 11:08:17;;;;;;;41.35;19.85;;;4.00;99.90;;;;;;5041316;28;20020;-46
2020/12/04 11:10:43;;;;;;;37.03;18.25;;;4.10;99.90;;;;;;5038754;28;20033;-49
2020/12/04 11:13:09;;;;;;;37.10;17.70;;;4.00;99.90;;;;;;5038208;28;20032;-45
2020/12/04 11:15:35;;;;;;;34.40;18.80;;;3.90;99.90;;;;;;5028564;28;20409;-46
2020/12/04 11:18:01;;;;;;;33.85;19.10;;;3.90;99.90;;;;;;5034870;28;20021;-47
2020/12/04 11:20:27;;;;;;;35.35;19.35;;;3.80;99.90;;;;;;5047988;28;20029;-45
2020/12/04 11:22:54;;;;;;;38.97;18.38;;;3.70;99.90;;;;;;5038469;28;20673;-48
2020/12/04 11:25:20;;;;;;;38.78;19.13;;;3.70;99.90;;;;;;5044088;28;20116;-45
2020/12/04 11:27:47;;;;;;;42.88;19.63;;;3.70;99.90;;;;;;5035347;28;20022;-47
2020/12/04 11:30:15;;;;;;;39.15;18.77;;;3.60;99.90;;;;;;5034635;28;20060;-46
2020/12/04 11:32:41;;;;;;;37.10;19.83;;;3.60;99.90;;;;;;5037700;28;20029;-45
2020/12/04 11:35:08;;;;;;;39.72;19.08;;;3.60;99.90;;;;;;5049914;28;20029;-45
2020/12/04 11:37:35;;;;;;;37.35;18.33;;;3.60;99.90;;;;;;5041314;28;20029;-48
2020/12/04 11:40:05;;;;;;;34.28;18.00;;;3.60;99.90;;;;;;5040677;28;20068;-45
2020/12/04 11:42:31;;;;;;;31.58;17.33;;;3.60;99.90;;;;;;5035438;28;20059;-46
2020/12/04 11:44:56;;;;;;;37.22;19.05;;;3.60;99.90;;;;;;5039517;28;20052;-45
2020/12/04 11:47:25;;;;;;;42.42;19.98;;;3.60;99.90;;;;;;5041465;28;20111;-44
2020/12/04 11:49:52;;;;;;;33.45;17.30;;;3.60;99.90;;;;;;5037916;28;20017;-44
2020/12/04 11:52:17;;;;;;;40.45;20.00;;;3.60;99.90;;;;;;5035671;28;20032;-46
2020/12/04 11:54:45;;;;;;;35.58;17.95;;;3.70;99.90;;;;;;5038140;28;20035;-47
2020/12/04 11:57:10;;;;;;;38.05;19.10;;;3.70;99.90;;;;;;5036556;28;20048;-46
2020/12/04 11:59:37;;;;;;;33.33;18.15;;;3.70;99.90;;;;;;5037934;28;20029;-45
2020/12/04 12:02:03;;;;;;;38.17;18.75;;;3.70;99.90;;;;;;5037777;28;20021;-46
2020/12/04 12:04:29;;;;;;;36.13;18.90;;;3.80;99.90;;;;;;5034736;28;20176;-45
2020/12/04 12:06:54;;;;;;;33.17;18.60;;;3.80;99.90;;;;;;5036584;28;20033;-44
2020/12/04 12:09:20;;;;;;;38.88;19.80;;;3.80;99.90;;;;;;5032059;28;20068;-44
2020/12/04 12:11:45;;;;;;;36.55;18.67;;;3.80;99.90;;;;;;5030224;28;20022;-47
2020/12/04 12:14:11;;;;;;;38.47;19.88;;;3.80;99.90;;;;;;5027910;28;20059;-46
2020/12/04 12:16:44;;;;;;;31.10;17.65;;;3.80;99.90;;;;;;5028236;28;20022;-48
2020/12/04 12:19:10;;;;;;;32.85;18.05;;;3.90;99.90;;;;;;5038755;28;20025;-46
2020/12/04 12:21:40;;;;;;;39.13;19.60;;;3.90;99.90;;;;;;5029944;28;20022;-46
2020/12/04 12:24:05;;;;;;;33.42;16.98;;;3.90;99.90;;;;;;5029158;28;20029;-46
2020/12/04 12:26:31;;;;;;;37.53;19.35;;;4.00;99.90;;;;;;5029182;28;20077;-46
2020/12/04 12:28:56;;;;;;;34.92;18.67;;;3.90;99.90;;;;;;5028361;28;20108;-45
2020/12/04 12:31:22;;;;;;;33.78;17.70;;;3.90;99.90;;;;;;5030727;28;20093;-45
2020/12/04 12:33:48;;;;;;;34.13;19.40;;;4.00;99.90;;;;;;5032886;28;20026;-46
2020/12/04 12:36:14;;;;;;;38.55;19.08;;;3.90;99.90;;;;;;5030553;28;20052;-45
2020/12/04 12:38:41;;;;;;;34.80;18.42;;;3.90;99.90;;;;;;5046989;28;20018;-46
2020/12/04 12:41:06;;;;;;;36.22;19.17;;;3.90;99.90;;;;;;5032004;28;20434;-45